Time,TemperatureF,DewpointF,PressureIn,WindDirection,WindDirectionDegrees,WindSpeedMPH,WindSpeedGustMPH,Humidity,HourlyPrecipIn,Conditions,Clouds,dailyrainin,SoftwareType,DateUTC
2013-08-02 00:01:00,68.9,60.4,30.11,ENE,68,0.0,0.0,74,0.00,,,0.03,WUHU216TE923,2013-08-02 04:01:00,
2013-08-02 00:02:00,68.9,60.4,30.11,ENE,68,0.0,0.0,74,0.00,,,0.00,WUHU216TE923,2013-08-02 04:02:00,
2013-08-02 00:07:00,68.7,60.2,30.14,ENE,68,0.0,0.0,74,0.00,,,0.00,WUHU216TE923,2013-08-02 04:07:00,
2013-08-02 00:12:00,68.7,60.2,30.14,ENE,68,0.0,0.0,74,0.00,,,0.00,WUHU216TE923,2013-08-02 04:12:00,
2013-08-02 00:16:00,68.7,60.2,30.14,ENE,68,0.0,0.0,74,0.00,,,0.00,WUHU216TE923,2013-08-02 04:16:00,
2013-08-02 00:21:00,68.5,60.0,30.14,ENE,68,0.0,0.0,74,0.00,,,0.00,WUHU216TE923,2013-08-02 04:21:00,
2013-08-02 00:26:00,68.4,60.3,30.14,ENE,68,0.0,0.0,75,0.00,,,0.00,WUHU216TE923,2013-08-02 04:26:00,
2013-08-02 00:31:00,68.4,60.3,30.14,ENE,68,0.0,0.0,75,0.00,,,0.00,WUHU216TE923,2013-08-02 04:31:00,
2013-08-02 00:37:00,68.4,60.3,30.14,ENE,68,0.0,0.0,75,0.00,,,0.00,WUHU216TE923,2013-08-02 04:37:00,
2013-08-02 00:42:00,68.2,60.1,30.14,ENE,68,0.0,0.0,75,0.00,,,0.00,WUHU216TE923,2013-08-02 04:42:00,
2013-08-02 00:47:00,68.2,60.1,30.14,ENE,68,0.0,0.0,75,0.00,,,0.00,WUHU216TE923,2013-08-02 04:47:00,
2013-08-02 00:52:00,68.0,59.9,30.14,ENE,68,0.0,0.0,75,0.00,,,0.00,WUHU216TE923,2013-08-02 04:52:00,
2013-08-02 00:57:00,68.0,59.9,30.14,ENE,68,0.0,0.0,75,0.00,,,0.00,WUHU216TE923,2013-08-02 04:57:00,
2013-08-02 01:02:00,67.8,60.1,30.14,ENE,68,0.0,0.0,76,0.00,,,0.00,WUHU216TE923,2013-08-02 05:02:00,
2013-08-02 01:07:00,67.8,60.1,30.14,ENE,68,0.0,0.0,76,0.00,,,0.00,WUHU216TE923,2013-08-02 05:07:00,
2013-08-02 01:12:00,67.6,59.9,30.14,ENE,68,0.0,0.0,76,0.00,,,0.00,WUHU216TE923,2013-08-02 05:12:00,
2013-08-02 01:17:00,67.6,59.9,30.14,ENE,68,0.0,0.0,76,0.00,,,0.00,WUHU216TE923,2013-08-02 05:17:00,
2013-08-02 01:22:00,67.5,59.8,30.21,ENE,68,0.0,0.0,76,0.00,,,0.00,WUHU216TE923,2013-08-02 05:22:00,
2013-08-02 01:27:00,67.5,59.8,30.25,ENE,68,0.0,0.0,76,0.00,,,0.00,WUHU216TE923,2013-08-02 05:27:00,
2013-08-02 01:32:00,67.5,59.8,30.25,ENE,68,0.0,0.0,76,0.00,,,0.00,WUHU216TE923,2013-08-02 05:32:00,
2013-08-02 01:37:00,67.3,59.6,30.25,ENE,68,0.0,0.0,76,0.00,,,0.00,WUHU216TE923,2013-08-02 05:37:00,
2013-08-02 01:42:00,67.1,59.4,30.25,ENE,68,0.0,0.0,76,0.00,,,0.00,WUHU216TE923,2013-08-02 05:42:00,
2013-08-02 01:47:00,67.1,59.4,30.24,ENE,68,0.0,0.0,76,0.00,,,0.00,WUHU216TE923,2013-08-02 05:47:00,
2013-08-02 01:52:00,67.1,59.4,30.24,ENE,68,0.0,0.0,76,0.00,,,0.00,WUHU216TE923,2013-08-02 05:52:00,
2013-08-02 01:57:00,66.9,59.2,30.24,ENE,68,0.0,0.0,76,0.00,,,0.00,WUHU216TE923,2013-08-02 05:57:00,
2013-08-02 02:02:00,66.9,59.2,30.24,ENE,68,0.0,0.0,76,0.00,,,0.00,WUHU216TE923,2013-08-02 06:02:00,
2013-08-02 02:07:00,66.9,59.2,30.24,ENE,68,0.0,0.0,76,0.00,,,0.00,WUHU216TE923,2013-08-02 06:07:00,
2013-08-02 02:12:00,66.7,59.0,30.28,ENE,68,0.0,0.0,76,0.00,,,0.00,WUHU216TE923,2013-08-02 06:12:00,
2013-08-02 02:17:00,66.6,58.9,30.28,ENE,68,0.0,0.0,76,0.00,,,0.00,WUHU216TE923,2013-08-02 06:17:00,
2013-08-02 02:22:00,66.6,58.9,30.28,ENE,68,0.0,0.0,76,0.00,,,0.00,WUHU216TE923,2013-08-02 06:22:00,
2013-08-02 02:27:00,66.6,59.3,30.23,ENE,68,0.0,0.0,77,0.00,,,0.00,WUHU216TE923,2013-08-02 06:27:00,
2013-08-02 02:32:00,66.4,59.1,30.23,ENE,68,0.0,0.0,77,0.00,,,0.00,WUHU216TE923,2013-08-02 06:32:00,
2013-08-02 02:37:00,66.4,59.1,30.23,ENE,68,0.0,0.0,77,0.00,,,0.00,WUHU216TE923,2013-08-02 06:37:00,
2013-08-02 02:42:00,66.4,59.1,30.23,ENE,68,0.0,0.0,77,0.00,,,0.00,WUHU216TE923,2013-08-02 06:42:00,
2013-08-02 02:47:00,66.2,58.9,30.28,ENE,68,0.0,0.0,77,0.00,,,0.00,WUHU216TE923,2013-08-02 06:47:00,
2013-08-02 02:52:00,66.2,58.9,30.28,ENE,68,0.0,0.0,77,0.00,,,0.00,WUHU216TE923,2013-08-02 06:52:00,
2013-08-02 02:57:00,66.0,58.7,30.28,ENE,68,0.0,0.0,77,0.00,,,0.00,WUHU216TE923,2013-08-02 06:57:00,
2013-08-02 03:02:00,66.0,58.7,30.28,ENE,68,0.0,0.0,77,0.00,,,0.00,WUHU216TE923,2013-08-02 07:02:00,
2013-08-02 03:07:00,65.8,58.5,30.23,ENE,68,0.0,0.0,77,0.00,,,0.00,WUHU216TE923,2013-08-02 07:07:00,
2013-08-02 03:12:00,65.8,58.5,30.23,ENE,68,0.0,0.0,77,0.00,,,0.00,WUHU216TE923,2013-08-02 07:12:00,
2013-08-02 03:17:00,65.8,58.5,30.23,ENE,68,0.0,0.0,77,0.00,,,0.00,WUHU216TE923,2013-08-02 07:17:00,
2013-08-02 03:22:00,65.7,58.4,30.23,ENE,68,0.0,0.0,77,0.00,,,0.00,WUHU216TE923,2013-08-02 07:22:00,
2013-08-02 03:27:00,65.7,58.4,30.23,ENE,68,0.0,0.0,77,0.00,,,0.00,WUHU216TE923,2013-08-02 07:27:00,
2013-08-02 03:32:00,65.7,58.4,30.23,ENE,68,0.0,0.0,77,0.00,,,0.00,WUHU216TE923,2013-08-02 07:32:00,
2013-08-02 03:37:00,65.5,58.2,30.23,ENE,68,0.0,0.0,77,0.00,,,0.00,WUHU216TE923,2013-08-02 07:37:00,
2013-08-02 03:42:00,65.5,58.2,30.23,ENE,68,0.0,0.0,77,0.00,,,0.00,WUHU216TE923,2013-08-02 07:42:00,
2013-08-02 03:47:00,65.5,58.2,30.27,ENE,68,0.0,0.0,77,0.00,,,0.00,WUHU216TE923,2013-08-02 07:47:00,
2013-08-02 03:52:00,65.5,58.5,30.27,ENE,68,0.0,0.0,78,0.00,,,0.00,WUHU216TE923,2013-08-02 07:52:00,
2013-08-02 03:57:00,65.3,58.4,30.27,ENE,68,0.0,0.0,78,0.00,,,0.00,WUHU216TE923,2013-08-02 07:57:00,
2013-08-02 04:02:00,65.3,58.4,30.27,ENE,68,0.0,0.0,78,0.00,,,0.00,WUHU216TE923,2013-08-02 08:02:00,
2013-08-02 04:07:00,65.1,58.2,30.28,ENE,68,0.0,0.0,78,0.00,,,0.00,WUHU216TE923,2013-08-02 08:07:00,
2013-08-02 04:12:00,65.1,58.2,30.28,ENE,68,0.0,0.0,78,0.00,,,0.00,WUHU216TE923,2013-08-02 08:12:00,
2013-08-02 04:17:00,64.9,58.0,30.28,ENE,68,0.0,0.0,78,0.00,,,0.00,WUHU216TE923,2013-08-02 08:17:00,
2013-08-02 04:22:00,64.9,58.0,30.28,ENE,68,0.0,0.0,78,0.00,,,0.00,WUHU216TE923,2013-08-02 08:22:00,
2013-08-02 04:27:00,64.9,58.0,30.31,ENE,68,0.0,0.0,78,0.00,,,0.00,WUHU216TE923,2013-08-02 08:27:00,
2013-08-02 04:32:00,64.8,57.9,30.31,ENE,68,0.0,0.0,78,0.00,,,0.00,WUHU216TE923,2013-08-02 08:32:00,
2013-08-02 04:37:00,64.6,57.7,30.31,ENE,68,0.0,0.0,78,0.00,,,0.00,WUHU216TE923,2013-08-02 08:37:00,
2013-08-02 04:42:00,64.6,57.7,30.31,ENE,68,0.0,0.0,78,0.00,,,0.00,WUHU216TE923,2013-08-02 08:42:00,
2013-08-02 04:47:00,64.4,57.5,30.28,ENE,68,0.0,0.0,78,0.00,,,0.00,WUHU216TE923,2013-08-02 08:47:00,
2013-08-02 04:52:00,64.4,57.5,30.28,ENE,68,0.0,0.0,78,0.00,,,0.00,WUHU216TE923,2013-08-02 08:52:00,
2013-08-02 04:57:00,64.2,57.3,30.28,ENE,68,0.0,0.0,78,0.00,,,0.00,WUHU216TE923,2013-08-02 08:57:00,
2013-08-02 05:02:00,64.2,57.3,30.28,ENE,68,0.0,0.0,78,0.00,,,0.00,WUHU216TE923,2013-08-02 09:02:00,
2013-08-02 05:07:00,64.2,57.3,30.32,ENE,68,0.0,0.0,78,0.00,,,0.00,WUHU216TE923,2013-08-02 09:07:00,
2013-08-02 05:12:00,64.2,57.3,30.32,ENE,68,0.0,0.0,78,0.00,,,0.00,WUHU216TE923,2013-08-02 09:12:00,
2013-08-02 05:17:00,64.0,57.1,30.32,ENE,68,0.0,0.0,78,0.00,,,0.00,WUHU216TE923,2013-08-02 09:17:00,
2013-08-02 05:22:00,64.0,57.1,30.32,ENE,68,0.0,0.0,78,0.00,,,0.00,WUHU216TE923,2013-08-02 09:22:00,
2013-08-02 05:27:00,63.9,57.0,30.32,ENE,68,0.0,0.0,78,0.00,,,0.00,WUHU216TE923,2013-08-02 09:27:00,
2013-08-02 05:32:00,63.9,57.0,30.32,ENE,68,0.0,0.0,78,0.00,,,0.00,WUHU216TE923,2013-08-02 09:32:00,
2013-08-02 05:37:00,63.7,56.8,30.32,ENE,68,0.0,0.0,78,0.00,,,0.00,WUHU216TE923,2013-08-02 09:37:00,
2013-08-02 05:42:00,63.7,56.8,30.32,ENE,68,0.0,0.0,78,0.00,,,0.00,WUHU216TE923,2013-08-02 09:42:00,
2013-08-02 05:47:00,63.5,56.6,30.31,ENE,68,0.0,0.0,78,0.00,,,0.00,WUHU216TE923,2013-08-02 09:47:00,
2013-08-02 05:52:00,63.5,56.6,30.31,ENE,68,0.0,0.0,78,0.00,,,0.00,WUHU216TE923,2013-08-02 09:52:00,
2013-08-02 05:57:00,63.5,56.6,30.31,ENE,68,0.0,0.0,78,0.00,,,0.00,WUHU216TE923,2013-08-02 09:57:00,
2013-08-02 06:02:00,63.5,56.6,30.31,ENE,68,0.0,0.0,78,0.00,,,0.00,WUHU216TE923,2013-08-02 10:02:00,
2013-08-02 06:07:00,63.3,56.4,30.32,ENE,68,0.0,0.0,78,0.00,,,0.00,WUHU216TE923,2013-08-02 10:07:00,
2013-08-02 06:12:00,63.3,56.4,30.32,ENE,68,0.0,0.0,78,0.00,,,0.00,WUHU216TE923,2013-08-02 10:12:00,
2013-08-02 06:17:00,63.3,56.4,30.32,ENE,68,0.0,0.0,78,0.00,,,0.00,WUHU216TE923,2013-08-02 10:17:00,
2013-08-02 06:22:00,63.3,56.4,30.32,ENE,68,0.0,0.0,78,0.00,,,0.00,WUHU216TE923,2013-08-02 10:22:00,
2013-08-02 06:27:00,63.3,56.4,30.31,ENE,68,0.0,0.0,78,0.00,,,0.00,WUHU216TE923,2013-08-02 10:27:00,
2013-08-02 06:32:00,63.1,56.2,30.31,ENE,68,0.0,0.0,78,0.00,,,0.00,WUHU216TE923,2013-08-02 10:32:00,
2013-08-02 06:37:00,63.1,56.2,30.31,ENE,68,0.0,0.0,78,0.00,,,0.00,WUHU216TE923,2013-08-02 10:37:00,
2013-08-02 06:42:00,63.1,56.2,30.31,ENE,68,0.0,0.0,78,0.00,,,0.00,WUHU216TE923,2013-08-02 10:42:00,
2013-08-02 06:47:00,63.1,56.2,30.31,ENE,68,0.0,0.0,78,0.00,,,0.00,WUHU216TE923,2013-08-02 10:47:00,
2013-08-02 06:52:00,63.1,56.2,30.30,ENE,68,0.0,0.0,78,0.00,,,0.00,WUHU216TE923,2013-08-02 10:52:00,
2013-08-02 06:57:00,63.1,56.2,30.30,ENE,68,0.0,0.0,78,0.00,,,0.00,WUHU216TE923,2013-08-02 10:57:00,
2013-08-02 07:02:00,63.1,56.6,30.30,ENE,68,0.0,0.0,79,0.00,,,0.00,WUHU216TE923,2013-08-02 11:02:00,
2013-08-02 07:07:00,63.1,56.6,30.30,ENE,68,0.0,0.0,79,0.00,,,0.00,WUHU216TE923,2013-08-02 11:07:00,
2013-08-02 07:12:00,63.1,56.6,30.28,ENE,68,0.0,0.0,79,0.00,,,0.00,WUHU216TE923,2013-08-02 11:12:00,
2013-08-02 07:17:00,63.1,56.6,30.28,ENE,68,0.0,0.0,79,0.00,,,0.00,WUHU216TE923,2013-08-02 11:17:00,
2013-08-02 07:22:00,63.3,56.8,30.28,ENE,68,0.0,0.0,79,0.00,,,0.00,WUHU216TE923,2013-08-02 11:22:00,
2013-08-02 07:27:00,63.5,56.9,30.27,East,90,0.0,0.0,79,0.00,,,0.00,WUHU216TE923,2013-08-02 11:27:00,
2013-08-02 07:32:00,63.7,57.1,30.27,ESE,113,0.0,0.0,79,0.00,,,0.00,WUHU216TE923,2013-08-02 11:32:00,
2013-08-02 07:37:00,63.9,57.7,30.27,East,90,0.0,0.0,80,0.00,,,0.00,WUHU216TE923,2013-08-02 11:37:00,
2013-08-02 07:42:00,63.9,57.7,30.27,East,90,0.0,0.0,80,0.00,,,0.00,WUHU216TE923,2013-08-02 11:42:00,
2013-08-02 07:47:00,64.0,57.8,30.27,ESE,113,0.0,0.0,80,0.00,,,0.00,WUHU216TE923,2013-08-02 11:47:00,
2013-08-02 07:52:00,64.0,57.8,30.27,East,90,0.0,0.0,80,0.00,,,0.00,WUHU216TE923,2013-08-02 11:52:00,
2013-08-02 07:57:00,64.2,58.3,30.27,East,90,0.0,0.0,81,0.00,,,0.00,WUHU216TE923,2013-08-02 11:57:00,
2013-08-02 08:02:00,64.4,58.5,30.27,East,90,0.0,0.0,81,0.00,,,0.00,WUHU216TE923,2013-08-02 12:02:00,
2013-08-02 08:07:00,64.6,58.7,30.28,ESE,113,0.0,0.0,81,0.00,,,0.00,WUHU216TE923,2013-08-02 12:07:00,
2013-08-02 08:12:00,64.6,59.0,30.28,ESE,113,0.0,0.0,82,0.00,,,0.00,WUHU216TE923,2013-08-02 12:12:00,
2013-08-02 08:17:00,64.8,59.2,30.28,SSE,158,0.0,0.0,82,0.00,,,0.00,WUHU216TE923,2013-08-02 12:17:00,
2013-08-02 08:22:00,64.9,59.3,30.28,SSE,158,0.0,0.0,82,0.00,,,0.00,WUHU216TE923,2013-08-02 12:22:00,
2013-08-02 08:27:00,65.3,59.7,30.28,East,90,0.0,0.0,82,0.00,,,0.00,WUHU216TE923,2013-08-02 12:27:00,
2013-08-02 08:32:00,65.3,60.0,30.28,ENE,68,0.0,0.0,83,0.00,,,0.00,WUHU216TE923,2013-08-02 12:32:00,
2013-08-02 08:37:00,65.7,60.4,30.28,ENE,68,0.0,0.0,83,0.00,,,0.00,WUHU216TE923,2013-08-02 12:37:00,
2013-08-02 08:42:00,65.7,60.4,30.28,East,90,0.0,0.0,83,0.00,,,0.00,WUHU216TE923,2013-08-02 12:42:00,
2013-08-02 08:47:00,66.0,60.7,30.28,East,90,0.0,0.0,83,0.00,,,0.00,WUHU216TE923,2013-08-02 12:47:00,
2013-08-02 08:52:00,66.2,60.9,30.28,East,90,0.0,0.0,83,0.00,,,0.00,WUHU216TE923,2013-08-02 12:52:00,
2013-08-02 08:57:00,66.2,60.9,30.28,ESE,113,0.0,0.0,83,0.00,,,0.00,WUHU216TE923,2013-08-02 12:57:00,
2013-08-02 09:02:00,66.6,61.3,30.28,East,90,0.0,0.0,83,0.00,,,0.00,WUHU216TE923,2013-08-02 13:02:00,
2013-08-02 09:07:00,66.6,61.3,30.28,East,90,0.0,0.0,83,0.00,,,0.00,WUHU216TE923,2013-08-02 13:07:00,
2013-08-02 09:12:00,67.1,61.8,30.27,SE,135,0.0,0.0,83,0.00,,,0.00,WUHU216TE923,2013-08-02 13:12:00,
2013-08-02 09:17:00,67.5,62.5,30.27,ESE,113,0.0,0.0,84,0.00,,,0.00,WUHU216TE923,2013-08-02 13:17:00,
2013-08-02 09:22:00,67.6,62.6,30.27,SE,135,0.0,0.0,84,0.00,,,0.00,WUHU216TE923,2013-08-02 13:22:00,
2013-08-02 09:27:00,67.8,62.5,30.30,SE,135,0.0,0.0,83,0.00,,,0.00,WUHU216TE923,2013-08-02 13:27:00,
2013-08-02 09:32:00,68.0,62.7,30.30,ENE,68,0.0,0.0,83,0.00,,,0.00,WUHU216TE923,2013-08-02 13:32:00,
2013-08-02 09:37:00,68.4,63.1,30.30,SE,135,0.1,0.1,83,0.00,,,0.00,WUHU216TE923,2013-08-02 13:37:00,
2013-08-02 09:42:00,68.4,63.1,30.30,SE,135,0.2,0.2,83,0.00,,,0.00,WUHU216TE923,2013-08-02 13:42:00,
2013-08-02 09:47:00,68.4,63.1,30.25,East,90,0.2,1.1,83,0.00,,,0.00,WUHU216TE923,2013-08-02 13:47:00,
2013-08-02 09:52:00,68.5,62.8,30.25,ENE,68,0.2,1.1,82,0.00,,,0.00,WUHU216TE923,2013-08-02 13:52:00,
2013-08-02 09:57:00,68.7,63.0,30.25,ESE,113,0.3,1.9,82,0.00,,,0.00,WUHU216TE923,2013-08-02 13:57:00,
2013-08-02 10:02:00,68.7,63.0,30.25,ESE,113,0.3,1.9,82,0.00,,,0.00,WUHU216TE923,2013-08-02 14:02:00,
2013-08-02 10:07:00,68.7,63.0,30.27,SE,135,0.1,0.3,82,0.00,,,0.00,WUHU216TE923,2013-08-02 14:07:00,
2013-08-02 10:12:00,69.8,63.8,30.27,NE,45,0.0,0.1,81,0.00,,,0.00,WUHU216TE923,2013-08-02 14:12:00,
2013-08-02 10:17:00,70.5,63.8,30.27,SE,135,0.1,0.1,79,0.00,,,0.00,WUHU216TE923,2013-08-02 14:17:00,
2013-08-02 10:23:00,71.1,64.0,30.27,NE,45,0.1,0.1,78,0.00,,,0.00,WUHU216TE923,2013-08-02 14:23:00,
2013-08-02 10:28:00,71.2,63.4,30.24,NE,45,0.0,0.1,76,0.00,,,0.00,WUHU216TE923,2013-08-02 14:28:00,
2013-08-02 10:33:00,71.2,63.4,30.24,WSW,248,0.0,0.0,76,0.00,,,0.00,WUHU216TE923,2013-08-02 14:33:00,
2013-08-02 10:38:00,71.8,62.8,30.24,NW,315,0.0,0.0,73,0.00,,,0.00,WUHU216TE923,2013-08-02 14:38:00,
2013-08-02 10:43:00,72.3,62.9,30.24,NW,315,0.0,0.0,72,0.00,,,0.00,WUHU216TE923,2013-08-02 14:43:00,
2013-08-02 10:48:00,72.5,62.3,30.25,ESE,113,0.0,0.0,70,0.00,,,0.00,WUHU216TE923,2013-08-02 14:48:00,
2013-08-02 10:53:00,72.5,61.9,30.25,SW,225,0.0,0.0,69,0.00,,,0.00,WUHU216TE923,2013-08-02 14:53:00,
2013-08-02 10:58:00,73.4,62.4,30.25,WSW,248,0.0,0.0,68,0.00,,,0.00,WUHU216TE923,2013-08-02 14:58:00,
2013-08-02 11:03:00,73.9,62.9,30.25,NNE,23,0.0,0.0,68,0.00,,,0.00,WUHU216TE923,2013-08-02 15:03:00,
2013-08-02 11:08:00,74.5,62.6,30.25,East,90,0.1,1.8,66,0.00,,,0.00,WUHU216TE923,2013-08-02 15:08:00,
2013-08-02 11:13:00,75.0,62.7,30.25,ESE,113,0.2,1.8,65,0.00,,,0.00,WUHU216TE923,2013-08-02 15:13:00,
2013-08-02 11:17:00,75.4,62.1,30.25,ESE,113,0.3,1.9,63,0.00,,,0.00,WUHU216TE923,2013-08-02 15:17:00,
2013-08-02 11:23:00,75.6,61.4,30.25,ESE,113,0.3,1.9,61,0.00,,,0.00,WUHU216TE923,2013-08-02 15:23:00,
2013-08-02 11:27:00,76.3,62.1,30.20,NE,45,0.5,1.6,61,0.00,,,0.00,WUHU216TE923,2013-08-02 15:27:00,
2013-08-02 11:33:00,76.5,61.8,30.20,ESE,113,0.3,0.5,60,0.00,,,0.00,WUHU216TE923,2013-08-02 15:33:00,
2013-08-02 11:38:00,76.6,59.9,30.20,ESE,113,0.2,0.3,56,0.00,,,0.00,WUHU216TE923,2013-08-02 15:38:00,
2013-08-02 11:43:00,76.8,61.1,30.20,ESE,113,0.1,0.2,58,0.00,,,0.00,WUHU216TE923,2013-08-02 15:43:00,
2013-08-02 11:48:00,77.5,60.8,30.17,ESE,113,0.1,1.1,56,0.00,,,0.00,WUHU216TE923,2013-08-02 15:48:00,
2013-08-02 11:53:00,77.9,60.1,30.17,East,90,0.5,1.6,54,0.00,,,0.00,WUHU216TE923,2013-08-02 15:53:00,
2013-08-02 11:58:00,78.4,57.7,30.17,SE,135,0.5,1.6,49,0.00,,,0.00,WUHU216TE923,2013-08-02 15:58:00,
2013-08-02 12:02:00,78.8,58.7,30.17,NE,45,0.3,1.4,50,0.00,,,0.00,WUHU216TE923,2013-08-02 16:02:00,
2013-08-02 12:08:00,79.2,59.1,30.16,SW,225,0.2,1.4,50,0.00,,,0.00,WUHU216TE923,2013-08-02 16:08:00,
2013-08-02 12:12:00,79.5,59.3,30.16,ESE,113,0.3,2.7,50,0.00,,,0.00,WUHU216TE923,2013-08-02 16:12:00,
2013-08-02 12:18:00,79.9,59.7,30.16,ESE,113,0.2,2.7,50,0.00,,,0.00,WUHU216TE923,2013-08-02 16:18:00,
2013-08-02 12:23:00,80.4,59.6,30.16,ESE,113,0.3,1.6,49,0.00,,,0.00,WUHU216TE923,2013-08-02 16:23:00,
2013-08-02 12:28:00,80.6,59.8,30.16,East,90,0.1,0.3,49,0.00,,,0.00,WUHU216TE923,2013-08-02 16:28:00,
2013-08-02 12:33:00,80.6,59.2,30.16,ESE,113,0.1,0.1,48,0.00,,,0.00,WUHU216TE923,2013-08-02 16:33:00,
2013-08-02 12:38:00,80.6,58.6,30.16,SW,225,0.0,0.1,47,0.00,,,0.00,WUHU216TE923,2013-08-02 16:38:00,
2013-08-02 12:42:00,80.6,58.6,30.16,WSW,248,0.0,0.0,47,0.00,,,0.00,WUHU216TE923,2013-08-02 16:42:00,
2013-08-02 12:48:00,81.7,60.2,30.12,SE,135,0.0,1.0,48,0.00,,,0.00,WUHU216TE923,2013-08-02 16:48:00,
2013-08-02 12:53:00,81.7,59.0,30.12,West,270,0.3,1.0,46,0.00,,,0.00,WUHU216TE923,2013-08-02 16:53:00,
2013-08-02 12:57:00,82.0,58.6,30.12,ENE,68,0.3,0.3,45,0.00,,,0.00,WUHU216TE923,2013-08-02 16:57:00,
2013-08-02 13:03:00,82.8,59.3,30.12,ENE,68,0.0,0.3,45,0.00,,,0.00,WUHU216TE923,2013-08-02 17:03:00,
2013-08-02 13:08:00,83.5,59.3,30.13,NE,45,0.2,1.0,44,0.00,,,0.00,WUHU216TE923,2013-08-02 17:08:00,
2013-08-02 13:13:00,84.0,58.4,30.13,NE,45,0.2,1.0,42,0.00,,,0.00,WUHU216TE923,2013-08-02 17:13:00,
2013-08-02 13:18:00,82.4,57.0,30.13,ENE,68,0.4,0.4,42,0.00,,,0.00,WUHU216TE923,2013-08-02 17:18:00,
2013-08-02 13:23:00,81.9,55.8,30.13,SE,135,0.3,0.4,41,0.00,,,0.00,WUHU216TE923,2013-08-02 17:23:00,
2013-08-02 13:28:00,83.5,55.9,30.13,South,180,0.2,0.3,39,0.00,,,0.00,WUHU216TE923,2013-08-02 17:28:00,
2013-08-02 13:33:00,84.0,55.6,30.13,ESE,113,0.3,1.6,38,0.00,,,0.00,WUHU216TE923,2013-08-02 17:33:00,
2013-08-02 13:38:00,84.0,56.3,30.13,East,90,0.2,1.6,39,0.00,,,0.00,WUHU216TE923,2013-08-02 17:38:00,
2013-08-02 13:43:00,83.8,55.4,30.13,NE,45,0.1,0.2,38,0.00,,,0.00,WUHU216TE923,2013-08-02 17:43:00,
2013-08-02 13:48:00,83.5,55.9,30.10,NNW,338,0.0,0.1,39,0.00,,,0.00,WUHU216TE923,2013-08-02 17:48:00,
2013-08-02 13:53:00,82.8,56.0,30.10,NNW,338,0.0,0.0,40,0.00,,,0.00,WUHU216TE923,2013-08-02 17:53:00,
2013-08-02 13:58:00,83.3,56.4,30.10,West,270,0.0,0.0,40,0.00,,,0.00,WUHU216TE923,2013-08-02 17:58:00,
2013-08-02 14:03:00,83.7,56.0,30.10,NE,45,0.0,0.0,39,0.00,,,0.00,WUHU216TE923,2013-08-02 18:03:00,
2013-08-02 14:08:00,84.4,57.4,30.13,NE,45,0.0,0.0,40,0.00,,,0.00,WUHU216TE923,2013-08-02 18:08:00,
2013-08-02 14:12:00,84.2,56.5,30.13,NW,315,0.0,0.0,39,0.00,,,0.00,WUHU216TE923,2013-08-02 18:12:00,
2013-08-02 14:18:00,83.7,56.0,30.13,WSW,248,0.1,1.2,39,0.00,,,0.00,WUHU216TE923,2013-08-02 18:18:00,
2013-08-02 14:23:00,82.6,55.8,30.13,WSW,248,0.1,1.2,40,0.00,,,0.00,WUHU216TE923,2013-08-02 18:23:00,
2013-08-02 14:28:00,82.4,54.9,30.08,WSW,248,0.0,0.1,39,0.00,,,0.00,WUHU216TE923,2013-08-02 18:28:00,
2013-08-02 14:33:00,83.5,55.9,30.08,WSW,248,0.0,1.8,39,0.00,,,0.00,WUHU216TE923,2013-08-02 18:33:00,
2013-08-02 14:38:00,84.0,55.6,30.08,SW,225,0.3,1.8,38,0.00,,,0.00,WUHU216TE923,2013-08-02 18:38:00,
2013-08-02 14:42:00,84.4,55.2,30.08,NW,315,0.3,0.3,37,0.00,,,0.00,WUHU216TE923,2013-08-02 18:42:00,
2013-08-02 14:48:00,84.2,53.5,30.11,SW,225,0.2,0.3,35,0.00,,,0.00,WUHU216TE923,2013-08-02 18:48:00,
2013-08-02 14:53:00,84.2,51.8,30.11,WSW,248,0.1,0.2,33,0.00,,,0.00,WUHU216TE923,2013-08-02 18:53:00,
2013-08-02 14:58:00,84.6,54.6,30.11,SW,225,0.0,0.1,36,0.00,,,0.00,WUHU216TE923,2013-08-02 18:58:00,
2013-08-02 15:03:00,84.7,53.9,30.11,SW,225,0.0,1.3,35,0.00,,,0.00,WUHU216TE923,2013-08-02 19:03:00,
2013-08-02 15:08:00,84.7,52.3,30.07,NNE,23,0.2,1.3,33,0.00,,,0.00,WUHU216TE923,2013-08-02 19:08:00,
2013-08-02 15:13:00,84.4,51.2,30.07,ESE,113,0.2,0.2,32,0.00,,,0.00,WUHU216TE923,2013-08-02 19:13:00,
2013-08-02 15:18:00,83.8,52.3,30.07,West,270,0.0,0.2,34,0.00,,,0.00,WUHU216TE923,2013-08-02 19:18:00,
2013-08-02 15:23:00,83.8,51.5,30.07,WSW,248,0.0,0.0,33,0.00,,,0.00,WUHU216TE923,2013-08-02 19:23:00,
2013-08-02 15:28:00,83.8,52.3,30.09,WSW,248,0.0,1.0,34,0.00,,,0.00,WUHU216TE923,2013-08-02 19:28:00,
2013-08-02 15:33:00,84.0,52.5,30.09,West,270,0.0,1.0,34,0.00,,,0.00,WUHU216TE923,2013-08-02 19:33:00,
2013-08-02 15:36:00,84.4,52.8,30.09,West,270,0.0,0.0,34,0.00,,,0.00,WUHU216TE923,2013-08-02 19:36:00,
2013-08-02 15:38:00,84.4,52.8,30.09,West,270,0.0,0.0,34,0.00,,,0.00,WUHU216TE923,2013-08-02 19:38:00,
2013-08-02 15:43:00,84.4,52.8,30.09,West,270,0.0,0.0,34,0.00,,,0.00,WUHU216TE923,2013-08-02 19:43:00,
2013-08-02 15:48:00,84.7,51.4,30.07,SW,225,0.1,1.1,32,0.00,,,0.00,WUHU216TE923,2013-08-02 19:48:00,
2013-08-02 15:53:00,84.7,52.3,30.07,WSW,248,0.1,1.1,33,0.00,,,0.00,WUHU216TE923,2013-08-02 19:53:00,
2013-08-02 15:58:00,84.9,51.6,30.07,WSW,248,0.2,1.1,32,0.00,,,0.00,WUHU216TE923,2013-08-02 19:58:00,
2013-08-02 16:03:00,84.9,51.6,30.07,West,270,0.2,1.1,32,0.00,,,0.00,WUHU216TE923,2013-08-02 20:03:00,
2013-08-02 16:08:00,85.1,51.8,30.08,NNW,338,0.1,0.2,32,0.00,,,0.00,WUHU216TE923,2013-08-02 20:08:00,
2013-08-02 16:13:00,85.1,51.8,30.08,NW,315,0.0,0.1,32,0.00,,,0.00,WUHU216TE923,2013-08-02 20:13:00,
2013-08-02 16:18:00,84.7,51.4,30.08,West,270,0.0,0.0,32,0.00,,,0.00,WUHU216TE923,2013-08-02 20:18:00,
2013-08-02 16:22:00,84.6,50.5,30.08,West,270,0.1,0.1,31,0.00,,,0.00,WUHU216TE923,2013-08-02 20:22:00,
2013-08-02 16:28:00,84.6,48.7,30.04,SW,225,0.3,0.3,29,0.00,,,0.00,WUHU216TE923,2013-08-02 20:28:00,
2013-08-02 16:33:00,84.7,49.7,30.04,East,90,0.3,0.3,30,0.00,,,0.00,WUHU216TE923,2013-08-02 20:33:00,
2013-08-02 16:38:00,84.7,49.7,30.04,NW,315,0.1,0.3,30,0.00,,,0.00,WUHU216TE923,2013-08-02 20:38:00,
2013-08-02 16:43:00,84.7,49.7,30.04,NW,315,0.1,0.1,30,0.00,,,0.00,WUHU216TE923,2013-08-02 20:43:00,
2013-08-02 16:48:00,84.6,49.6,30.06,NW,315,0.0,0.1,30,0.00,,,0.00,WUHU216TE923,2013-08-02 20:48:00,
2013-08-02 16:53:00,84.6,49.6,30.06,NNE,23,0.0,0.0,30,0.00,,,0.00,WUHU216TE923,2013-08-02 20:53:00,
2013-08-02 16:58:00,84.0,50.0,30.06,SSE,158,0.0,0.0,31,0.00,,,0.00,WUHU216TE923,2013-08-02 20:58:00,
2013-08-02 17:03:00,84.0,50.0,30.06,WSW,248,0.0,0.0,31,0.00,,,0.00,WUHU216TE923,2013-08-02 21:03:00,
2013-08-02 17:08:00,84.0,50.8,30.04,NW,315,0.0,0.0,32,0.00,,,0.00,WUHU216TE923,2013-08-02 21:08:00,
2013-08-02 17:13:00,84.0,50.0,30.04,SW,225,0.0,0.0,31,0.00,,,0.00,WUHU216TE923,2013-08-02 21:13:00,
2013-08-02 17:17:00,83.7,51.4,30.04,West,270,0.1,0.1,33,0.00,,,0.00,WUHU216TE923,2013-08-02 21:17:00,
2013-08-02 17:23:00,83.1,51.7,30.04,WNW,293,0.3,1.5,34,0.00,,,0.00,WUHU216TE923,2013-08-02 21:23:00,
2013-08-02 17:28:00,82.8,53.8,30.04,SSW,203,0.3,1.5,37,0.00,,,0.00,WUHU216TE923,2013-08-02 21:28:00,
2013-08-02 17:33:00,82.4,54.2,30.04,SW,225,0.2,0.3,38,0.00,,,0.00,WUHU216TE923,2013-08-02 21:33:00,
2013-08-02 17:38:00,82.2,54.7,30.04,SW,225,0.1,0.2,39,0.00,,,0.00,WUHU216TE923,2013-08-02 21:38:00,
2013-08-02 17:43:00,81.9,55.1,30.04,SW,225,0.0,0.1,40,0.00,,,0.00,WUHU216TE923,2013-08-02 21:43:00,
2013-08-02 17:48:00,81.9,55.8,30.03,West,270,0.1,0.1,41,0.00,,,0.00,WUHU216TE923,2013-08-02 21:48:00,
2013-08-02 17:53:00,81.7,57.0,30.03,WNW,293,0.2,0.2,43,0.00,,,0.00,WUHU216TE923,2013-08-02 21:53:00,
2013-08-02 17:58:00,81.7,57.7,30.03,NW,315,0.2,0.2,44,0.00,,,0.00,WUHU216TE923,2013-08-02 21:58:00,
2013-08-02 18:03:00,81.7,57.7,30.03,WSW,248,0.2,1.0,44,0.00,,,0.00,WUHU216TE923,2013-08-02 22:03:00,
2013-08-02 18:07:00,81.5,58.1,30.02,NW,315,0.1,1.0,45,0.00,,,0.00,WUHU216TE923,2013-08-02 22:07:00,
2013-08-02 18:13:00,81.5,58.1,30.02,NW,315,0.0,0.1,45,0.00,,,0.00,WUHU216TE923,2013-08-02 22:13:00,
2013-08-02 18:17:00,81.3,58.0,30.02,NW,315,0.0,0.0,45,0.00,,,0.00,WUHU216TE923,2013-08-02 22:17:00,
2013-08-02 18:23:00,81.1,58.4,30.02,NW,315,0.0,0.0,46,0.00,,,0.00,WUHU216TE923,2013-08-02 22:23:00,
2013-08-02 18:28:00,81.0,58.3,30.05,SW,225,0.0,0.0,46,0.00,,,0.00,WUHU216TE923,2013-08-02 22:28:00,
2013-08-02 18:33:00,81.0,58.9,30.05,North,0,0.0,0.0,47,0.00,,,0.00,WUHU216TE923,2013-08-02 22:33:00,
2013-08-02 18:38:00,80.8,58.1,30.05,SE,135,0.0,0.0,46,0.00,,,0.00,WUHU216TE923,2013-08-02 22:38:00,
2013-08-02 18:42:00,80.6,57.9,30.05,ENE,68,0.0,0.0,46,0.00,,,0.00,WUHU216TE923,2013-08-02 22:42:00,
2013-08-02 18:47:00,80.4,58.4,30.02,SW,225,0.0,0.0,47,0.00,,,0.00,WUHU216TE923,2013-08-02 22:47:00,
2013-08-02 18:52:00,80.4,58.4,30.02,WSW,248,0.0,0.0,47,0.00,,,0.00,WUHU216TE923,2013-08-02 22:52:00,
2013-08-02 18:57:00,80.2,58.8,30.02,South,180,0.0,0.0,48,0.00,,,0.00,WUHU216TE923,2013-08-02 22:57:00,
2013-08-02 19:02:00,80.1,58.7,30.02,South,180,0.0,0.0,48,0.00,,,0.00,WUHU216TE923,2013-08-02 23:02:00,
2013-08-02 19:07:00,79.9,59.1,30.07,South,180,0.0,0.0,49,0.00,,,0.00,WUHU216TE923,2013-08-02 23:07:00,
2013-08-02 19:12:00,79.7,58.9,30.07,SSW,203,0.0,0.0,49,0.00,,,0.00,WUHU216TE923,2013-08-02 23:12:00,
2013-08-02 19:17:00,79.3,58.6,30.07,SSW,203,0.0,0.0,49,0.00,,,0.00,WUHU216TE923,2013-08-02 23:17:00,
2013-08-02 19:22:00,79.2,59.1,30.07,SSW,203,0.0,0.0,50,0.00,,,0.00,WUHU216TE923,2013-08-02 23:22:00,
2013-08-02 19:27:00,78.8,58.7,30.11,SSW,203,0.0,0.0,50,0.00,,,0.00,WUHU216TE923,2013-08-02 23:27:00,
2013-08-02 19:32:00,78.6,60.2,30.11,SSW,203,0.0,0.0,53,0.00,,,0.00,WUHU216TE923,2013-08-02 23:32:00,
2013-08-02 19:37:00,78.4,60.0,30.11,SSW,203,0.0,0.0,53,0.00,,,0.00,WUHU216TE923,2013-08-02 23:37:00,
2013-08-02 19:42:00,78.3,60.5,30.11,SSW,203,0.0,0.0,54,0.00,,,0.00,WUHU216TE923,2013-08-02 23:42:00,
2013-08-02 19:47:00,78.1,60.3,30.10,SSW,203,0.0,0.0,54,0.00,,,0.00,WUHU216TE923,2013-08-02 23:47:00,
2013-08-02 19:52:00,77.7,60.4,30.10,SSW,203,0.0,0.0,55,0.00,,,0.00,WUHU216TE923,2013-08-02 23:52:00,
2013-08-02 19:57:00,77.5,60.2,30.10,SSW,203,0.0,0.0,55,0.00,,,0.00,WUHU216TE923,2013-08-02 23:57:00,
2013-08-02 20:02:00,77.4,60.1,30.10,SSW,203,0.0,0.0,55,0.00,,,0.00,WUHU216TE923,2013-08-03 00:02:00,
2013-08-02 20:07:00,77.2,60.5,30.13,SSW,203,0.0,0.0,56,0.00,,,0.00,WUHU216TE923,2013-08-03 00:07:00,
2013-08-02 20:12:00,77.0,60.3,30.13,SSW,203,0.0,0.0,56,0.00,,,0.00,WUHU216TE923,2013-08-03 00:12:00,
2013-08-02 20:17:00,76.6,59.9,30.13,SSW,203,0.0,0.0,56,0.00,,,0.00,WUHU216TE923,2013-08-03 00:17:00,
2013-08-02 20:22:00,76.5,59.8,30.13,SSW,203,0.0,0.0,56,0.00,,,0.00,WUHU216TE923,2013-08-03 00:22:00,
2013-08-02 20:27:00,76.3,59.6,30.15,SSW,203,0.0,0.0,56,0.00,,,0.00,WUHU216TE923,2013-08-03 00:27:00,
2013-08-02 20:32:00,75.9,59.8,30.15,SSW,203,0.0,0.0,57,0.00,,,0.00,WUHU216TE923,2013-08-03 00:32:00,
2013-08-02 20:33:00,75.9,59.8,30.15,SSW,203,0.0,0.0,57,0.00,,,0.00,WUHU216TE923,2013-08-03 00:33:00,
2013-08-02 20:38:00,75.6,59.5,30.15,SSW,203,0.0,0.0,57,0.00,,,0.00,WUHU216TE923,2013-08-03 00:38:00,
2013-08-02 20:43:00,75.6,59.5,30.15,SSW,203,0.0,0.0,57,0.00,,,0.00,WUHU216TE923,2013-08-03 00:43:00,
2013-08-02 20:48:00,75.0,59.4,30.14,SSW,203,0.0,0.0,58,0.00,,,0.00,WUHU216TE923,2013-08-03 00:48:00,
2013-08-02 20:53:00,74.8,59.2,30.14,SSW,203,0.0,0.0,58,0.00,,,0.00,WUHU216TE923,2013-08-03 00:53:00,
2013-08-02 20:58:00,74.7,59.1,30.14,SSW,203,0.0,0.0,58,0.00,,,0.00,WUHU216TE923,2013-08-03 00:58:00,
2013-08-02 21:03:00,74.3,58.8,30.14,SSW,203,0.0,0.0,58,0.00,,,0.00,WUHU216TE923,2013-08-03 01:03:00,
2013-08-02 21:08:00,74.3,58.8,30.19,SSW,203,0.0,0.0,58,0.00,,,0.00,WUHU216TE923,2013-08-03 01:08:00,
2013-08-02 21:13:00,74.1,59.0,30.19,SSW,203,0.0,0.0,59,0.00,,,0.00,WUHU216TE923,2013-08-03 01:13:00,
2013-08-02 21:18:00,73.9,58.9,30.19,SSW,203,0.0,0.0,59,0.00,,,0.00,WUHU216TE923,2013-08-03 01:18:00,
2013-08-02 21:23:00,73.8,59.2,30.19,SSW,203,0.0,0.0,60,0.00,,,0.00,WUHU216TE923,2013-08-03 01:23:00,
2013-08-02 21:28:00,73.4,58.9,30.16,SSW,203,0.0,0.0,60,0.00,,,0.00,WUHU216TE923,2013-08-03 01:28:00,
2013-08-02 21:33:00,73.4,59.3,30.16,SSW,203,0.0,0.0,61,0.00,,,0.00,WUHU216TE923,2013-08-03 01:33:00,
2013-08-02 21:38:00,73.0,59.9,30.16,SSW,203,0.0,0.0,63,0.00,,,0.00,WUHU216TE923,2013-08-03 01:38:00,
2013-08-02 21:43:00,72.9,60.2,30.16,SSW,203,0.0,0.0,64,0.00,,,0.00,WUHU216TE923,2013-08-03 01:43:00,
2013-08-02 21:48:00,72.9,60.2,30.21,SSW,203,0.0,0.0,64,0.00,,,0.00,WUHU216TE923,2013-08-03 01:48:00,
2013-08-02 21:53:00,72.7,60.0,30.21,SSW,203,0.0,0.0,64,0.00,,,0.00,WUHU216TE923,2013-08-03 01:53:00,
2013-08-02 21:58:00,72.3,60.1,30.21,SSW,203,0.0,0.0,65,0.00,,,0.00,WUHU216TE923,2013-08-03 01:58:00,
2013-08-02 22:03:00,72.3,60.5,30.21,SSW,203,0.0,0.0,66,0.00,,,0.00,WUHU216TE923,2013-08-03 02:03:00,
2013-08-02 22:08:00,72.0,60.2,30.20,SSW,203,0.0,0.0,66,0.00,,,0.00,WUHU216TE923,2013-08-03 02:08:00,
2013-08-02 22:13:00,71.8,60.0,30.20,SSW,203,0.0,0.0,66,0.00,,,0.00,WUHU216TE923,2013-08-03 02:13:00,
2013-08-02 22:18:00,71.8,60.4,30.20,SSW,203,0.0,0.0,67,0.00,,,0.00,WUHU216TE923,2013-08-03 02:18:00,
2013-08-02 22:23:00,71.8,60.4,30.20,SSW,203,0.0,0.0,67,0.00,,,0.00,WUHU216TE923,2013-08-03 02:23:00,
2013-08-02 22:28:00,71.4,60.5,30.23,SSW,203,0.0,0.0,68,0.00,,,0.00,WUHU216TE923,2013-08-03 02:28:00,
2013-08-02 22:33:00,71.2,60.3,30.23,SSW,203,0.0,0.0,68,0.00,,,0.00,WUHU216TE923,2013-08-03 02:33:00,
2013-08-02 22:38:00,71.2,60.7,30.23,SSW,203,0.0,0.0,69,0.00,,,0.00,WUHU216TE923,2013-08-03 02:38:00,
2013-08-02 22:43:00,71.2,60.7,30.23,SSW,203,0.0,0.0,69,0.00,,,0.00,WUHU216TE923,2013-08-03 02:43:00,
2013-08-02 22:48:00,71.1,60.6,30.26,SSW,203,0.0,0.0,69,0.00,,,0.00,WUHU216TE923,2013-08-03 02:48:00,
2013-08-02 22:53:00,70.9,60.4,30.26,SSW,203,0.0,0.0,69,0.00,,,0.00,WUHU216TE923,2013-08-03 02:53:00,
2013-08-02 22:58:00,70.9,60.8,30.26,SSW,203,0.0,0.0,70,0.00,,,0.00,WUHU216TE923,2013-08-03 02:58:00,
2013-08-02 23:03:00,70.7,60.6,30.26,SSW,203,0.0,0.0,70,0.00,,,0.00,WUHU216TE923,2013-08-03 03:03:00,
2013-08-02 23:08:00,70.7,61.0,30.26,SSW,203,0.0,0.0,71,0.00,,,0.00,WUHU216TE923,2013-08-03 03:08:00,
2013-08-02 23:13:00,70.5,60.8,30.26,SSW,203,0.0,0.0,71,0.00,,,0.00,WUHU216TE923,2013-08-03 03:13:00,
2013-08-02 23:18:00,70.3,60.6,30.26,SSW,203,0.0,0.0,71,0.00,,,0.00,WUHU216TE923,2013-08-03 03:18:00,
2013-08-02 23:23:00,70.3,60.6,30.26,SSW,203,0.0,0.0,71,0.00,,,0.00,WUHU216TE923,2013-08-03 03:23:00,
2013-08-02 23:28:00,70.3,60.6,30.26,SSW,203,0.0,0.0,71,0.00,,,0.00,WUHU216TE923,2013-08-03 03:28:00,
2013-08-02 23:33:00,70.3,61.0,30.26,SSW,203,0.0,0.0,72,0.00,,,0.00,WUHU216TE923,2013-08-03 03:33:00,
2013-08-02 23:38:00,70.2,60.9,30.26,SSW,203,0.0,0.0,72,0.00,,,0.00,WUHU216TE923,2013-08-03 03:38:00,
2013-08-02 23:43:00,70.2,60.9,30.26,SSW,203,0.0,0.0,72,0.00,,,0.00,WUHU216TE923,2013-08-03 03:43:00,
2013-08-02 23:48:00,70.0,61.1,30.28,SSW,203,0.0,0.0,73,0.00,,,0.00,WUHU216TE923,2013-08-03 03:48:00,
2013-08-02 23:53:00,70.0,61.1,30.28,SSW,203,0.0,0.0,73,0.00,,,0.00,WUHU216TE923,2013-08-03 03:53:00,
2013-08-02 23:58:00,70.0,61.1,30.28,SSW,203,0.0,0.0,73,0.00,,,0.00,WUHU216TE923,2013-08-03 03:58:00,